Aviation Digital Data Service (ADDS)

Output produced by METARs form (0518 UTC 25 May 2018)
found at http://www.aviationweather.gov/adds/metars/
 
TAF HADR 250330Z 2506/2612 18005KT 9999 SCT030 SCT090
       
HAAB 250100Z 00000KT 9999 SCT025 12/11 Q1024
TAF HAAB 250330Z 2506/2612 20006KT 9999 BKN025 SCT080 
     BECMG 2511/2515 7000M TSRA 
     FM2516 TL2600 -RA OVC023 
     FM2604 34005KT SCT025